sensor_id;sensor_type;location;lat;lon;timestamp;P1;durP1;ratioP1;P2;durP2;ratioP2
4311;SDS011;2169;49.086;9.284;2023-12-14T00:01:56;3.20;;;2.90;;
4311;SDS011;2169;49.086;9.284;2023-12-14T00:04:23;4.00;;;3.53;;
4311;SDS011;2169;49.086;9.284;2023-12-14T00:06:50;3.17;;;2.93;;
4311;SDS011;2169;49.086;9.284;2023-12-14T00:09:18;1.97;;;1.80;;
4311;SDS011;2169;49.086;9.284;2023-12-14T00:11:45;2.53;;;2.33;;
4311;SDS011;2169;49.086;9.284;2023-12-14T00:14:12;2.83;;;2.67;;
4311;SDS011;2169;49.086;9.284;2023-12-14T00:16:39;2.30;;;2.20;;
4311;SDS011;2169;49.086;9.284;2023-12-14T00:19:06;8.13;;;1.70;;
4311;SDS011;2169;49.086;9.284;2023-12-14T00:21:33;1.60;;;1.47;;
4311;SDS011;2169;49.086;9.284;2023-12-14T00:23:59;2.03;;;1.93;;
4311;SDS011;2169;49.086;9.284;2023-12-14T00:26:29;7.30;;;1.53;;
4311;SDS011;2169;49.086;9.284;2023-12-14T00:28:55;1.77;;;1.50;;
4311;SDS011;2169;49.086;9.284;2023-12-14T00:31:22;1.83;;;1.20;;
4311;SDS011;2169;49.086;9.284;2023-12-14T00:33:48;7.23;;;2.77;;
4311;SDS011;2169;49.086;9.284;2023-12-14T00:36:18;1.77;;;1.67;;
4311;SDS011;2169;49.086;9.284;2023-12-14T00:38:48;2.80;;;2.70;;
4311;SDS011;2169;49.086;9.284;2023-12-14T00:41:15;5.60;;;2.50;;
4311;SDS011;2169;49.086;9.284;2023-12-14T00:43:43;2.50;;;2.30;;
4311;SDS011;2169;49.086;9.284;2023-12-14T00:46:11;3.97;;;2.60;;
4311;SDS011;2169;49.086;9.284;2023-12-14T00:48:37;3.33;;;2.80;;
4311;SDS011;2169;49.086;9.284;2023-12-14T00:51:04;5.70;;;1.77;;
4311;SDS011;2169;49.086;9.284;2023-12-14T00:53:31;7.10;;;3.30;;
4311;SDS011;2169;49.086;9.284;2023-12-14T00:55:58;7.03;;;3.07;;
4311;SDS011;2169;49.086;9.284;2023-12-14T00:58:25;7.00;;;2.77;;
4311;SDS011;2169;49.086;9.284;2023-12-14T01:00:56;3.83;;;2.10;;
4311;SDS011;2169;49.086;9.284;2023-12-14T01:03:23;2.70;;;2.50;;
4311;SDS011;2169;49.086;9.284;2023-12-14T01:05:49;2.37;;;2.30;;
4311;SDS011;2169;49.086;9.284;2023-12-14T01:08:16;3.67;;;2.73;;
4311;SDS011;2169;49.086;9.284;2023-12-14T01:10:43;3.90;;;3.00;;
4311;SDS011;2169;49.086;9.284;2023-12-14T01:13:10;2.73;;;2.53;;
4311;SDS011;2169;49.086;9.284;2023-12-14T01:15:38;2.93;;;2.60;;
4311;SDS011;2169;49.086;9.284;2023-12-14T01:18:06;5.93;;;3.20;;
4311;SDS011;2169;49.086;9.284;2023-12-14T01:20:33;4.30;;;3.33;;
4311;SDS011;2169;49.086;9.284;2023-12-14T01:23:00;5.03;;;4.57;;
4311;SDS011;2169;49.086;9.284;2023-12-14T01:25:27;3.40;;;3.10;;
4311;SDS011;2169;49.086;9.284;2023-12-14T01:27:54;16.30;;;3.73;;
4311;SDS011;2169;49.086;9.284;2023-12-14T01:30:22;3.23;;;2.93;;
4311;SDS011;2169;49.086;9.284;2023-12-14T01:32:48;6.30;;;5.30;;
4311;SDS011;2169;49.086;9.284;2023-12-14T01:35:17;3.23;;;3.03;;
4311;SDS011;2169;49.086;9.284;2023-12-14T01:37:44;6.83;;;4.20;;
4311;SDS011;2169;49.086;9.284;2023-12-14T01:40:12;3.17;;;2.90;;
4311;SDS011;2169;49.086;9.284;2023-12-14T01:42:39;3.30;;;3.00;;
4311;SDS011;2169;49.086;9.284;2023-12-14T01:45:06;6.00;;;4.73;;
4311;SDS011;2169;49.086;9.284;2023-12-14T01:47:33;4.13;;;3.83;;
4311;SDS011;2169;49.086;9.284;2023-12-14T01:50:00;4.40;;;4.10;;
4311;SDS011;2169;49.086;9.284;2023-12-14T01:52:29;4.47;;;4.07;;
4311;SDS011;2169;49.086;9.284;2023-12-14T01:54:56;9.63;;;4.47;;
4311;SDS011;2169;49.086;9.284;2023-12-14T01:57:24;7.10;;;5.70;;
4311;SDS011;2169;49.086;9.284;2023-12-14T01:59:51;5.83;;;5.30;;
4311;SDS011;2169;49.086;9.284;2023-12-14T02:02:18;5.57;;;5.03;;
4311;SDS011;2169;49.086;9.284;2023-12-14T02:04:45;7.43;;;5.33;;
4311;SDS011;2169;49.086;9.284;2023-12-14T02:07:12;5.07;;;4.37;;
4311;SDS011;2169;49.086;9.284;2023-12-14T02:09:41;6.07;;;5.57;;
4311;SDS011;2169;49.086;9.284;2023-12-14T02:12:08;8.83;;;5.90;;
4311;SDS011;2169;49.086;9.284;2023-12-14T02:14:35;6.13;;;5.40;;
4311;SDS011;2169;49.086;9.284;2023-12-14T02:17:01;7.17;;;5.70;;
4311;SDS011;2169;49.086;9.284;2023-12-14T02:19:29;8.20;;;5.67;;
4311;SDS011;2169;49.086;9.284;2023-12-14T02:21:56;6.23;;;5.67;;
4311;SDS011;2169;49.086;9.284;2023-12-14T02:24:24;5.27;;;4.73;;
4311;SDS011;2169;49.086;9.284;2023-12-14T02:26:51;6.13;;;5.57;;
4311;SDS011;2169;49.086;9.284;2023-12-14T02:29:18;5.83;;;5.33;;
4311;SDS011;2169;49.086;9.284;2023-12-14T02:31:46;6.03;;;5.20;;
4311;SDS011;2169;49.086;9.284;2023-12-14T02:34:13;9.83;;;5.53;;
4311;SDS011;2169;49.086;9.284;2023-12-14T02:36:40;13.50;;;5.97;;
4311;SDS011;2169;49.086;9.284;2023-12-14T02:39:07;7.20;;;5.10;;
4311;SDS011;2169;49.086;9.284;2023-12-14T02:41:36;6.80;;;5.20;;
4311;SDS011;2169;49.086;9.284;2023-12-14T02:44:03;6.90;;;6.23;;
4311;SDS011;2169;49.086;9.284;2023-12-14T02:46:31;5.63;;;5.10;;
4311;SDS011;2169;49.086;9.284;2023-12-14T02:48:58;5.60;;;5.17;;
4311;SDS011;2169;49.086;9.284;2023-12-14T02:51:25;6.63;;;4.97;;
4311;SDS011;2169;49.086;9.284;2023-12-14T02:53:52;6.77;;;6.17;;
4311;SDS011;2169;49.086;9.284;2023-12-14T02:56:22;6.63;;;5.03;;
4311;SDS011;2169;49.086;9.284;2023-12-14T02:58:52;7.17;;;5.80;;
4311;SDS011;2169;49.086;9.284;2023-12-14T03:01:19;5.57;;;4.67;;
4311;SDS011;2169;49.086;9.284;2023-12-14T03:03:48;7.00;;;4.97;;
4311;SDS011;2169;49.086;9.284;2023-12-14T03:06:15;7.30;;;4.93;;
4311;SDS011;2169;49.086;9.284;2023-12-14T03:08:42;10.67;;;6.57;;
4311;SDS011;2169;49.086;9.284;2023-12-14T03:11:10;8.23;;;4.83;;
4311;SDS011;2169;49.086;9.284;2023-12-14T03:13:37;8.20;;;4.93;;
4311;SDS011;2169;49.086;9.284;2023-12-14T03:16:08;7.33;;;5.93;;
4311;SDS011;2169;49.086;9.284;2023-12-14T03:18:34;10.83;;;6.07;;
4311;SDS011;2169;49.086;9.284;2023-12-14T03:21:02;4.53;;;4.00;;
4311;SDS011;2169;49.086;9.284;2023-12-14T03:23:29;8.97;;;5.77;;
4311;SDS011;2169;49.086;9.284;2023-12-14T03:25:58;4.80;;;4.30;;
4311;SDS011;2169;49.086;9.284;2023-12-14T03:28:27;10.83;;;6.80;;
4311;SDS011;2169;49.086;9.284;2023-12-14T03:30:54;10.93;;;6.83;;
4311;SDS011;2169;49.086;9.284;2023-12-14T03:33:23;19.10;;;7.10;;
4311;SDS011;2169;49.086;9.284;2023-12-14T03:35:49;9.43;;;7.27;;
4311;SDS011;2169;49.086;9.284;2023-12-14T03:38:16;6.47;;;5.93;;
4311;SDS011;2169;49.086;9.284;2023-12-14T03:40:43;6.23;;;5.23;;
4311;SDS011;2169;49.086;9.284;2023-12-14T03:43:10;8.40;;;4.87;;
4311;SDS011;2169;49.086;9.284;2023-12-14T03:45:37;7.07;;;4.20;;
4311;SDS011;2169;49.086;9.284;2023-12-14T03:48:04;9.10;;;6.77;;
4311;SDS011;2169;49.086;9.284;2023-12-14T03:50:34;4.33;;;3.70;;
4311;SDS011;2169;49.086;9.284;2023-12-14T03:53:01;5.60;;;5.10;;
4311;SDS011;2169;49.086;9.284;2023-12-14T03:55:28;5.07;;;4.57;;
4311;SDS011;2169;49.086;9.284;2023-12-14T03:57:55;6.93;;;4.73;;
4311;SDS011;2169;49.086;9.284;2023-12-14T04:00:22;10.13;;;4.97;;
4311;SDS011;2169;49.086;9.284;2023-12-14T04:02:49;37.57;;;6.97;;
4311;SDS011;2169;49.086;9.284;2023-12-14T04:05:16;5.97;;;4.00;;
4311;SDS011;2169;49.086;9.284;2023-12-14T04:07:45;15.10;;;4.30;;
4311;SDS011;2169;49.086;9.284;2023-12-14T04:10:12;7.97;;;5.93;;
4311;SDS011;2169;49.086;9.284;2023-12-14T04:12:39;12.07;;;6.07;;
4311;SDS011;2169;49.086;9.284;2023-12-14T04:15:07;7.90;;;6.33;;
4311;SDS011;2169;49.086;9.284;2023-12-14T04:17:35;10.57;;;5.07;;
4311;SDS011;2169;49.086;9.284;2023-12-14T04:20:05;5.87;;;5.23;;
4311;SDS011;2169;49.086;9.284;2023-12-14T04:22:33;7.97;;;4.60;;
4311;SDS011;2169;49.086;9.284;2023-12-14T04:25:03;10.43;;;6.53;;
4311;SDS011;2169;49.086;9.284;2023-12-14T04:27:32;9.00;;;5.73;;
4311;SDS011;2169;49.086;9.284;2023-12-14T04:29:59;5.03;;;4.47;;
4311;SDS011;2169;49.086;9.284;2023-12-14T04:32:26;14.80;;;9.47;;
4311;SDS011;2169;49.086;9.284;2023-12-14T04:34:53;11.13;;;5.67;;
4311;SDS011;2169;49.086;9.284;2023-12-14T04:37:20;20.60;;;7.03;;
4311;SDS011;2169;49.086;9.284;2023-12-14T04:39:47;9.73;;;5.53;;
4311;SDS011;2169;49.086;9.284;2023-12-14T04:42:15;8.80;;;6.90;;
4311;SDS011;2169;49.086;9.284;2023-12-14T04:44:42;10.13;;;6.07;;
4311;SDS011;2169;49.086;9.284;2023-12-14T04:47:09;10.33;;;6.67;;
4311;SDS011;2169;49.086;9.284;2023-12-14T04:49:36;11.30;;;7.20;;
4311;SDS011;2169;49.086;9.284;2023-12-14T04:52:04;12.77;;;8.50;;
4311;SDS011;2169;49.086;9.284;2023-12-14T04:54:31;14.47;;;8.63;;
4311;SDS011;2169;49.086;9.284;2023-12-14T04:57:00;15.97;;;9.37;;
4311;SDS011;2169;49.086;9.284;2023-12-14T04:59:28;13.90;;;9.53;;
4311;SDS011;2169;49.086;9.284;2023-12-14T05:01:58;18.40;;;10.13;;
4311;SDS011;2169;49.086;9.284;2023-12-14T05:04:25;15.53;;;8.73;;
4311;SDS011;2169;49.086;9.284;2023-12-14T05:06:54;19.80;;;11.30;;
4311;SDS011;2169;49.086;9.284;2023-12-14T05:09:21;15.10;;;11.00;;
4311;SDS011;2169;49.086;9.284;2023-12-14T05:11:49;22.13;;;8.60;;
4311;SDS011;2169;49.086;9.284;2023-12-14T05:14:16;21.00;;;9.90;;
4311;SDS011;2169;49.086;9.284;2023-12-14T05:16:44;22.47;;;10.90;;
4311;SDS011;2169;49.086;9.284;2023-12-14T05:19:11;12.60;;;9.30;;
4311;SDS011;2169;49.086;9.284;2023-12-14T05:21:38;20.43;;;11.97;;
4311;SDS011;2169;49.086;9.284;2023-12-14T05:24:08;20.30;;;11.37;;
4311;SDS011;2169;49.086;9.284;2023-12-14T05:26:36;14.80;;;9.10;;
4311;SDS011;2169;49.086;9.284;2023-12-14T05:29:03;15.17;;;10.10;;
4311;SDS011;2169;49.086;9.284;2023-12-14T05:31:30;15.40;;;9.27;;
4311;SDS011;2169;49.086;9.284;2023-12-14T05:33:58;15.90;;;10.10;;
4311;SDS011;2169;49.086;9.284;2023-12-14T05:36:25;15.53;;;9.30;;
4311;SDS011;2169;49.086;9.284;2023-12-14T05:38:52;13.33;;;8.90;;
4311;SDS011;2169;49.086;9.284;2023-12-14T05:41:19;16.00;;;9.77;;
4311;SDS011;2169;49.086;9.284;2023-12-14T05:43:46;15.77;;;10.37;;
4311;SDS011;2169;49.086;9.284;2023-12-14T05:46:20;18.00;;;11.17;;
4311;SDS011;2169;49.086;9.284;2023-12-14T05:48:48;13.23;;;9.67;;
4311;SDS011;2169;49.086;9.284;2023-12-14T05:51:26;16.47;;;8.70;;
4311;SDS011;2169;49.086;9.284;2023-12-14T05:53:54;24.33;;;10.03;;
4311;SDS011;2169;49.086;9.284;2023-12-14T05:56:21;15.87;;;9.67;;
4311;SDS011;2169;49.086;9.284;2023-12-14T05:58:48;14.00;;;10.30;;
4311;SDS011;2169;49.086;9.284;2023-12-14T06:01:16;15.03;;;8.90;;
4311;SDS011;2169;49.086;9.284;2023-12-14T06:03:44;16.37;;;10.10;;
4311;SDS011;2169;49.086;9.284;2023-12-14T06:06:11;16.30;;;10.00;;
4311;SDS011;2169;49.086;9.284;2023-12-14T06:08:41;14.70;;;8.60;;
4311;SDS011;2169;49.086;9.284;2023-12-14T06:11:08;13.43;;;9.40;;
4311;SDS011;2169;49.086;9.284;2023-12-14T06:13:35;14.23;;;9.60;;
4311;SDS011;2169;49.086;9.284;2023-12-14T06:16:02;15.90;;;9.47;;
4311;SDS011;2169;49.086;9.284;2023-12-14T06:18:30;19.40;;;10.90;;
4311;SDS011;2169;49.086;9.284;2023-12-14T06:20:57;34.33;;;12.60;;
4311;SDS011;2169;49.086;9.284;2023-12-14T06:23:23;17.67;;;10.10;;
4311;SDS011;2169;49.086;9.284;2023-12-14T06:25:53;19.00;;;10.07;;
4311;SDS011;2169;49.086;9.284;2023-12-14T06:28:20;21.63;;;12.33;;
4311;SDS011;2169;49.086;9.284;2023-12-14T06:30:48;15.40;;;10.53;;
4311;SDS011;2169;49.086;9.284;2023-12-14T06:33:14;14.70;;;9.10;;
4311;SDS011;2169;49.086;9.284;2023-12-14T06:35:41;12.53;;;9.63;;
4311;SDS011;2169;49.086;9.284;2023-12-14T06:38:09;16.70;;;11.47;;
4311;SDS011;2169;49.086;9.284;2023-12-14T06:40:36;16.30;;;9.87;;
4311;SDS011;2169;49.086;9.284;2023-12-14T06:43:05;17.50;;;8.70;;
4311;SDS011;2169;49.086;9.284;2023-12-14T06:45:32;16.17;;;10.70;;
4311;SDS011;2169;49.086;9.284;2023-12-14T06:47:58;22.57;;;10.33;;
4311;SDS011;2169;49.086;9.284;2023-12-14T06:50:27;19.60;;;10.17;;
4311;SDS011;2169;49.086;9.284;2023-12-14T06:52:54;12.77;;;8.50;;
4311;SDS011;2169;49.086;9.284;2023-12-14T06:55:21;11.87;;;9.63;;
4311;SDS011;2169;49.086;9.284;2023-12-14T06:57:48;22.27;;;10.63;;
4311;SDS011;2169;49.086;9.284;2023-12-14T07:00:16;18.43;;;10.83;;
4311;SDS011;2169;49.086;9.284;2023-12-14T07:02:44;19.93;;;10.67;;
4311;SDS011;2169;49.086;9.284;2023-12-14T07:05:10;20.57;;;13.00;;
4311;SDS011;2169;49.086;9.284;2023-12-14T07:07:38;20.83;;;10.47;;
4311;SDS011;2169;49.086;9.284;2023-12-14T07:10:05;14.97;;;9.63;;
4311;SDS011;2169;49.086;9.284;2023-12-14T07:12:32;15.23;;;9.97;;
4311;SDS011;2169;49.086;9.284;2023-12-14T07:14:59;23.67;;;12.93;;
4311;SDS011;2169;49.086;9.284;2023-12-14T07:17:29;19.00;;;11.60;;
4311;SDS011;2169;49.086;9.284;2023-12-14T07:19:56;15.83;;;8.80;;
4311;SDS011;2169;49.086;9.284;2023-12-14T07:22:23;22.47;;;11.63;;
4311;SDS011;2169;49.086;9.284;2023-12-14T07:24:50;18.33;;;10.97;;
4311;SDS011;2169;49.086;9.284;2023-12-14T07:27:19;19.83;;;10.50;;
4311;SDS011;2169;49.086;9.284;2023-12-14T07:29:46;23.60;;;11.20;;
4311;SDS011;2169;49.086;9.284;2023-12-14T07:32:12;19.10;;;12.00;;
4311;SDS011;2169;49.086;9.284;2023-12-14T07:34:43;20.67;;;10.70;;
4311;SDS011;2169;49.086;9.284;2023-12-14T07:37:10;21.40;;;9.17;;
4311;SDS011;2169;49.086;9.284;2023-12-14T07:39:36;14.40;;;10.03;;
4311;SDS011;2169;49.086;9.284;2023-12-14T07:42:03;15.30;;;9.43;;
4311;SDS011;2169;49.086;9.284;2023-12-14T07:44:31;25.33;;;9.07;;
4311;SDS011;2169;49.086;9.284;2023-12-14T07:47:00;23.20;;;9.93;;
4311;SDS011;2169;49.086;9.284;2023-12-14T07:49:27;17.50;;;8.73;;
4311;SDS011;2169;49.086;9.284;2023-12-14T07:51:56;21.60;;;11.67;;
4311;SDS011;2169;49.086;9.284;2023-12-14T07:54:23;26.33;;;12.70;;
4311;SDS011;2169;49.086;9.284;2023-12-14T07:56:52;20.17;;;11.10;;
4311;SDS011;2169;49.086;9.284;2023-12-14T07:59:21;23.63;;;11.43;;
4311;SDS011;2169;49.086;9.284;2023-12-14T08:01:48;21.73;;;11.10;;
4311;SDS011;2169;49.086;9.284;2023-12-14T08:04:15;19.77;;;11.60;;
4311;SDS011;2169;49.086;9.284;2023-12-14T08:06:42;22.07;;;12.73;;
4311;SDS011;2169;49.086;9.284;2023-12-14T08:09:10;20.10;;;11.27;;
4311;SDS011;2169;49.086;9.284;2023-12-14T08:11:37;20.30;;;11.70;;
4311;SDS011;2169;49.086;9.284;2023-12-14T08:14:04;17.83;;;10.83;;
4311;SDS011;2169;49.086;9.284;2023-12-14T08:16:31;17.57;;;10.83;;
4311;SDS011;2169;49.086;9.284;2023-12-14T08:18:58;17.93;;;12.10;;
4311;SDS011;2169;49.086;9.284;2023-12-14T08:21:26;18.93;;;11.07;;
4311;SDS011;2169;49.086;9.284;2023-12-14T08:23:55;17.07;;;10.77;;
4311;SDS011;2169;49.086;9.284;2023-12-14T08:26:24;18.23;;;11.60;;
4311;SDS011;2169;49.086;9.284;2023-12-14T08:28:51;19.37;;;10.87;;
4311;SDS011;2169;49.086;9.284;2023-12-14T08:31:17;22.90;;;13.57;;
4311;SDS011;2169;49.086;9.284;2023-12-14T08:33:44;21.97;;;11.67;;
4311;SDS011;2169;49.086;9.284;2023-12-14T08:36:14;17.13;;;9.17;;
4311;SDS011;2169;49.086;9.284;2023-12-14T08:38:42;22.90;;;11.57;;
4311;SDS011;2169;49.086;9.284;2023-12-14T08:41:11;37.27;;;12.13;;
4311;SDS011;2169;49.086;9.284;2023-12-14T08:43:40;16.33;;;11.90;;
4311;SDS011;2169;49.086;9.284;2023-12-14T08:46:07;16.80;;;10.57;;
4311;SDS011;2169;49.086;9.284;2023-12-14T08:48:35;22.47;;;12.07;;
4311;SDS011;2169;49.086;9.284;2023-12-14T08:51:02;30.90;;;11.90;;
4311;SDS011;2169;49.086;9.284;2023-12-14T08:53:33;24.90;;;11.13;;
4311;SDS011;2169;49.086;9.284;2023-12-14T08:56:00;24.73;;;12.43;;
4311;SDS011;2169;49.086;9.284;2023-12-14T08:58:28;15.67;;;10.33;;
4311;SDS011;2169;49.086;9.284;2023-12-14T09:00:57;13.83;;;8.57;;
4311;SDS011;2169;49.086;9.284;2023-12-14T09:03:23;24.87;;;12.27;;
4311;SDS011;2169;49.086;9.284;2023-12-14T09:05:52;16.53;;;10.87;;
4311;SDS011;2169;49.086;9.284;2023-12-14T09:08:19;18.63;;;10.50;;
4311;SDS011;2169;49.086;9.284;2023-12-14T09:10:46;14.13;;;10.33;;
4311;SDS011;2169;49.086;9.284;2023-12-14T09:13:14;26.30;;;12.67;;
4311;SDS011;2169;49.086;9.284;2023-12-14T09:15:41;23.37;;;11.50;;
4311;SDS011;2169;49.086;9.284;2023-12-14T09:18:10;15.30;;;10.07;;
4311;SDS011;2169;49.086;9.284;2023-12-14T09:20:37;12.67;;;8.60;;
4311;SDS011;2169;49.086;9.284;2023-12-14T09:23:05;15.57;;;10.10;;
4311;SDS011;2169;49.086;9.284;2023-12-14T09:25:32;21.50;;;12.17;;
4311;SDS011;2169;49.086;9.284;2023-12-14T09:27:59;18.13;;;10.13;;
4311;SDS011;2169;49.086;9.284;2023-12-14T09:30:26;24.27;;;12.47;;
4311;SDS011;2169;49.086;9.284;2023-12-14T09:32:53;26.60;;;11.17;;
4311;SDS011;2169;49.086;9.284;2023-12-14T09:35:22;20.47;;;10.47;;
4311;SDS011;2169;49.086;9.284;2023-12-14T09:37:49;17.80;;;10.40;;
4311;SDS011;2169;49.086;9.284;2023-12-14T09:40:17;19.33;;;10.90;;
4311;SDS011;2169;49.086;9.284;2023-12-14T09:42:44;25.50;;;10.63;;
4311;SDS011;2169;49.086;9.284;2023-12-14T09:45:12;36.03;;;14.80;;
4311;SDS011;2169;49.086;9.284;2023-12-14T09:47:39;25.03;;;15.67;;
4311;SDS011;2169;49.086;9.284;2023-12-14T09:50:08;23.20;;;12.20;;
4311;SDS011;2169;49.086;9.284;2023-12-14T09:52:36;26.03;;;13.07;;
4311;SDS011;2169;49.086;9.284;2023-12-14T09:55:04;20.10;;;11.70;;
4311;SDS011;2169;49.086;9.284;2023-12-14T09:57:31;23.47;;;11.87;;
4311;SDS011;2169;49.086;9.284;2023-12-14T09:59:58;26.30;;;11.47;;
4311;SDS011;2169;49.086;9.284;2023-12-14T10:02:25;38.30;;;14.57;;
4311;SDS011;2169;49.086;9.284;2023-12-14T10:04:53;30.83;;;14.60;;
4311;SDS011;2169;49.086;9.284;2023-12-14T10:07:20;22.83;;;13.80;;
4311;SDS011;2169;49.086;9.284;2023-12-14T10:09:50;22.63;;;13.10;;
4311;SDS011;2169;49.086;9.284;2023-12-14T10:12:18;24.87;;;14.13;;
4311;SDS011;2169;49.086;9.284;2023-12-14T10:14:46;25.30;;;13.47;;
4311;SDS011;2169;49.086;9.284;2023-12-14T10:17:31;29.33;;;12.83;;
4311;SDS011;2169;49.086;9.284;2023-12-14T10:19:57;21.90;;;12.33;;
4311;SDS011;2169;49.086;9.284;2023-12-14T10:22:28;28.23;;;13.03;;
4311;SDS011;2169;49.086;9.284;2023-12-14T10:24:59;19.43;;;11.07;;
4311;SDS011;2169;49.086;9.284;2023-12-14T10:27:26;31.10;;;11.57;;
4311;SDS011;2169;49.086;9.284;2023-12-14T10:29:53;23.10;;;9.87;;
4311;SDS011;2169;49.086;9.284;2023-12-14T10:32:21;23.70;;;13.57;;
4311;SDS011;2169;49.086;9.284;2023-12-14T10:34:51;16.33;;;9.80;;
4311;SDS011;2169;49.086;9.284;2023-12-14T10:37:17;19.60;;;11.20;;
4311;SDS011;2169;49.086;9.284;2023-12-14T10:39:47;22.27;;;11.00;;
4311;SDS011;2169;49.086;9.284;2023-12-14T10:42:17;16.60;;;9.20;;
4311;SDS011;2169;49.086;9.284;2023-12-14T10:44:47;18.67;;;10.53;;
4311;SDS011;2169;49.086;9.284;2023-12-14T10:47:17;27.90;;;9.40;;
4311;SDS011;2169;49.086;9.284;2023-12-14T10:49:46;21.23;;;11.37;;
4311;SDS011;2169;49.086;9.284;2023-12-14T10:52:16;19.60;;;8.93;;
4311;SDS011;2169;49.086;9.284;2023-12-14T10:54:44;17.40;;;10.20;;
4311;SDS011;2169;49.086;9.284;2023-12-14T10:57:13;12.03;;;9.40;;
4311;SDS011;2169;49.086;9.284;2023-12-14T10:59:43;18.33;;;7.57;;
4311;SDS011;2169;49.086;9.284;2023-12-14T11:02:10;12.97;;;9.00;;
4311;SDS011;2169;49.086;9.284;2023-12-14T11:04:55;11.40;;;7.73;;
4311;SDS011;2169;49.086;9.284;2023-12-14T11:07:43;17.57;;;9.63;;
4311;SDS011;2169;49.086;9.284;2023-12-14T11:10:14;16.17;;;6.87;;
4311;SDS011;2169;49.086;9.284;2023-12-14T11:12:57;27.00;;;9.70;;
4311;SDS011;2169;49.086;9.284;2023-12-14T11:15:29;20.27;;;11.83;;
4311;SDS011;2169;49.086;9.284;2023-12-14T11:20:54;22.47;;;10.30;;
4311;SDS011;2169;49.086;9.284;2023-12-14T11:23:32;20.20;;;10.70;;
4311;SDS011;2169;49.086;9.284;2023-12-14T11:26:02;13.07;;;9.33;;
4311;SDS011;2169;49.086;9.284;2023-12-14T11:28:30;14.93;;;9.03;;
4311;SDS011;2169;49.086;9.284;2023-12-14T11:31:00;14.80;;;9.73;;
4311;SDS011;2169;49.086;9.284;2023-12-14T11:33:27;14.37;;;7.77;;
4311;SDS011;2169;49.086;9.284;2023-12-14T11:35:55;10.83;;;8.80;;
4311;SDS011;2169;49.086;9.284;2023-12-14T11:38:22;15.20;;;10.63;;
4311;SDS011;2169;49.086;9.284;2023-12-14T11:40:52;12.33;;;8.27;;
4311;SDS011;2169;49.086;9.284;2023-12-14T11:43:20;23.40;;;9.50;;
4311;SDS011;2169;49.086;9.284;2023-12-14T11:45:50;19.03;;;9.97;;
4311;SDS011;2169;49.086;9.284;2023-12-14T11:48:18;18.10;;;9.37;;
4311;SDS011;2169;49.086;9.284;2023-12-14T11:50:46;12.83;;;8.23;;
4311;SDS011;2169;49.086;9.284;2023-12-14T11:53:13;15.10;;;10.07;;
4311;SDS011;2169;49.086;9.284;2023-12-14T11:55:41;22.33;;;9.40;;
4311;SDS011;2169;49.086;9.284;2023-12-14T11:58:11;13.10;;;8.20;;
4311;SDS011;2169;49.086;9.284;2023-12-14T12:00:40;9.33;;;8.30;;
4311;SDS011;2169;49.086;9.284;2023-12-14T12:03:10;11.90;;;8.33;;
4311;SDS011;2169;49.086;9.284;2023-12-14T12:05:43;17.00;;;9.20;;
4311;SDS011;2169;49.086;9.284;2023-12-14T12:08:15;11.60;;;7.50;;
4311;SDS011;2169;49.086;9.284;2023-12-14T12:10:48;17.97;;;8.63;;
4311;SDS011;2169;49.086;9.284;2023-12-14T12:13:24;14.97;;;8.83;;
4311;SDS011;2169;49.086;9.284;2023-12-14T12:15:54;17.40;;;7.40;;
4311;SDS011;2169;49.086;9.284;2023-12-14T12:18:21;15.83;;;7.70;;
4311;SDS011;2169;49.086;9.284;2023-12-14T12:20:52;9.37;;;7.20;;
4311;SDS011;2169;49.086;9.284;2023-12-14T12:23:28;24.47;;;7.67;;
4311;SDS011;2169;49.086;9.284;2023-12-14T12:25:57;14.60;;;7.47;;
4311;SDS011;2169;49.086;9.284;2023-12-14T12:28:24;8.50;;;6.23;;
4311;SDS011;2169;49.086;9.284;2023-12-14T12:30:51;9.17;;;7.10;;
4311;SDS011;2169;49.086;9.284;2023-12-14T12:33:19;5.87;;;5.27;;
4311;SDS011;2169;49.086;9.284;2023-12-14T12:35:46;30.83;;;5.43;;
4311;SDS011;2169;49.086;9.284;2023-12-14T12:38:14;8.70;;;5.97;;
4311;SDS011;2169;49.086;9.284;2023-12-14T12:40:41;6.17;;;5.07;;
4311;SDS011;2169;49.086;9.284;2023-12-14T12:43:08;10.40;;;6.83;;
4311;SDS011;2169;49.086;9.284;2023-12-14T12:45:35;8.43;;;5.20;;
4311;SDS011;2169;49.086;9.284;2023-12-14T12:48:03;9.50;;;5.33;;
4311;SDS011;2169;49.086;9.284;2023-12-14T12:50:32;7.13;;;4.67;;
4311;SDS011;2169;49.086;9.284;2023-12-14T12:52:59;14.40;;;5.57;;
4311;SDS011;2169;49.086;9.284;2023-12-14T12:55:28;8.27;;;6.13;;
4311;SDS011;2169;49.086;9.284;2023-12-14T12:57:55;11.10;;;6.87;;
4311;SDS011;2169;49.086;9.284;2023-12-14T13:00:23;9.60;;;5.33;;
4311;SDS011;2169;49.086;9.284;2023-12-14T13:02:50;6.30;;;5.60;;
4311;SDS011;2169;49.086;9.284;2023-12-14T13:05:17;10.40;;;7.50;;
4311;SDS011;2169;49.086;9.284;2023-12-14T13:07:45;6.20;;;5.27;;
4311;SDS011;2169;49.086;9.284;2023-12-14T13:10:12;8.00;;;5.80;;
4311;SDS011;2169;49.086;9.284;2023-12-14T13:12:41;10.70;;;5.70;;
4311;SDS011;2169;49.086;9.284;2023-12-14T13:15:08;8.70;;;5.63;;
4311;SDS011;2169;49.086;9.284;2023-12-14T13:17:36;8.67;;;7.20;;
4311;SDS011;2169;49.086;9.284;2023-12-14T13:20:03;8.60;;;6.80;;
4311;SDS011;2169;49.086;9.284;2023-12-14T13:22:32;7.90;;;6.20;;
4311;SDS011;2169;49.086;9.284;2023-12-14T13:24:59;11.10;;;6.23;;
4311;SDS011;2169;49.086;9.284;2023-12-14T13:27:29;6.93;;;5.60;;
4311;SDS011;2169;49.086;9.284;2023-12-14T13:29:59;15.43;;;7.20;;
4311;SDS011;2169;49.086;9.284;2023-12-14T13:32:26;10.20;;;6.73;;
4311;SDS011;2169;49.086;9.284;2023-12-14T13:34:53;14.17;;;7.93;;
4311;SDS011;2169;49.086;9.284;2023-12-14T13:37:20;10.87;;;7.33;;
4311;SDS011;2169;49.086;9.284;2023-12-14T13:39:47;12.17;;;7.50;;
4311;SDS011;2169;49.086;9.284;2023-12-14T13:42:15;9.30;;;7.00;;
4311;SDS011;2169;49.086;9.284;2023-12-14T13:44:42;9.30;;;7.30;;
4311;SDS011;2169;49.086;9.284;2023-12-14T13:47:13;19.30;;;7.40;;
4311;SDS011;2169;49.086;9.284;2023-12-14T13:49:41;11.47;;;7.37;;
4311;SDS011;2169;49.086;9.284;2023-12-14T13:52:09;9.70;;;6.80;;
4311;SDS011;2169;49.086;9.284;2023-12-14T13:54:36;10.07;;;7.47;;
4311;SDS011;2169;49.086;9.284;2023-12-14T13:57:03;9.67;;;6.50;;
4311;SDS011;2169;49.086;9.284;2023-12-14T13:59:30;12.73;;;6.17;;
4311;SDS011;2169;49.086;9.284;2023-12-14T14:01:59;15.63;;;8.30;;
4311;SDS011;2169;49.086;9.284;2023-12-14T14:04:30;6.67;;;6.00;;
4311;SDS011;2169;49.086;9.284;2023-12-14T14:06:57;10.27;;;5.87;;
4311;SDS011;2169;49.086;9.284;2023-12-14T14:09:23;14.60;;;9.03;;
4311;SDS011;2169;49.086;9.284;2023-12-14T14:11:51;19.43;;;8.67;;
4311;SDS011;2169;49.086;9.284;2023-12-14T14:14:18;11.67;;;7.93;;
4311;SDS011;2169;49.086;9.284;2023-12-14T14:16:45;13.03;;;6.00;;
4311;SDS011;2169;49.086;9.284;2023-12-14T14:19:12;17.80;;;8.00;;
4311;SDS011;2169;49.086;9.284;2023-12-14T14:21:41;13.33;;;6.53;;
4311;SDS011;2169;49.086;9.284;2023-12-14T14:24:08;6.60;;;5.30;;
4311;SDS011;2169;49.086;9.284;2023-12-14T14:26:36;11.23;;;7.03;;
4311;SDS011;2169;49.086;9.284;2023-12-14T14:29:03;11.93;;;5.80;;
4311;SDS011;2169;49.086;9.284;2023-12-14T14:31:29;7.40;;;6.53;;
4311;SDS011;2169;49.086;9.284;2023-12-14T14:33:57;15.63;;;7.90;;
4311;SDS011;2169;49.086;9.284;2023-12-14T14:36:24;15.20;;;7.33;;
4311;SDS011;2169;49.086;9.284;2023-12-14T14:38:53;8.20;;;5.20;;
4311;SDS011;2169;49.086;9.284;2023-12-14T14:41:21;8.47;;;6.73;;
4311;SDS011;2169;49.086;9.284;2023-12-14T14:43:48;15.33;;;7.20;;
4311;SDS011;2169;49.086;9.284;2023-12-14T14:46:15;9.97;;;6.37;;
4311;SDS011;2169;49.086;9.284;2023-12-14T14:48:43;11.53;;;8.00;;
4311;SDS011;2169;49.086;9.284;2023-12-14T14:51:09;12.00;;;7.27;;
4311;SDS011;2169;49.086;9.284;2023-12-14T14:53:36;16.33;;;6.33;;
4311;SDS011;2169;49.086;9.284;2023-12-14T14:56:09;11.40;;;6.97;;
4311;SDS011;2169;49.086;9.284;2023-12-14T14:58:36;11.57;;;7.60;;
4311;SDS011;2169;49.086;9.284;2023-12-14T15:01:03;8.77;;;6.47;;
4311;SDS011;2169;49.086;9.284;2023-12-14T15:03:30;11.80;;;7.40;;
4311;SDS011;2169;49.086;9.284;2023-12-14T15:05:56;14.30;;;7.50;;
4311;SDS011;2169;49.086;9.284;2023-12-14T15:08:23;7.10;;;5.63;;
4311;SDS011;2169;49.086;9.284;2023-12-14T15:10:50;11.20;;;6.03;;